Time;durP1;ratioP1;P1;durP2;ratioP2;P2;SDS_P1;SDS_P2;PMS_P1;PMS_P2;Temp;Humidity;BMP_temperature;BMP_pressure;BME280_temperature;BME280_humidity;BME280_pressure;Samples;Min_cycle;Max_cycle;Signal;HPM_P1;HPM_P2
2023/02/11 00:00:47;;;;;;;88.50;30.53;;;;;;;2.40;100.00;101922.48;5092611;56;1140998;-69
2023/02/11 00:06:01;;;;;;;58.73;19.97;;;;;;;2.39;100.00;101922.06;5092829;56;1140959;-69
2023/02/11 00:11:07;;;;;;;51.87;19.20;;;;;;;2.37;100.00;101912.55;5112191;56;1140912;-70
2023/02/11 00:16:17;;;;;;;51.90;17.77;;;;;;;2.33;100.00;101906.52;5094355;56;1141259;-70
2023/02/11 00:21:27;;;;;;;47.08;19.48;;;;;;;2.30;100.00;101903.11;5092783;56;1140880;-69
2023/02/11 00:26:35;;;;;;;41.07;17.63;;;;;;;2.25;100.00;101899.77;5103804;56;1140909;-71
2023/02/11 00:31:41;;;;;;;48.23;15.63;;;;;;;2.23;100.00;101889.34;5082535;56;1140877;-70
2023/02/11 00:36:48;;;;;;;43.10;16.40;;;;;;;2.17;100.00;101869.89;5045027;56;1141019;-68
2023/02/11 00:41:54;;;;;;;52.60;23.07;;;;;;;2.15;100.00;101827.75;5020498;57;1140836;-69
2023/02/11 00:47:00;;;;;;;41.08;14.60;;;;;;;2.11;100.00;101810.02;4994515;56;1141054;-68
2023/02/11 00:52:05;;;;;;;50.35;21.60;;;;;;;2.06;100.00;101798.38;5021750;56;1140989;-69
2023/02/11 00:57:13;;;;;;;47.43;18.23;;;;;;;2.01;100.00;101788.91;5038326;57;1141014;-69
2023/02/11 01:02:19;;;;;;;60.13;22.37;;;;;;;1.96;100.00;101784.27;5056876;57;1140902;-70
2023/02/11 01:07:24;;;;;;;46.13;18.07;;;;;;;1.95;100.00;101777.33;5010972;57;1141259;-67
2023/02/11 01:12:30;;;;;;;52.93;21.67;;;;;;;1.94;100.00;101803.00;4978537;57;1140900;-70
2023/02/11 01:17:38;;;;;;;46.37;19.07;;;;;;;1.96;100.00;101805.13;5038311;57;1141143;-69
2023/02/11 01:22:47;;;;;;;47.37;14.83;;;;;;;1.95;100.00;101812.10;5014815;57;1140803;-70
2023/02/11 01:27:53;;;;;;;52.00;21.77;;;;;;;1.93;100.00;101796.92;5067592;56;1141116;-70
2023/02/11 01:33:00;;;;;;;50.78;19.35;;;;;;;1.94;100.00;101814.74;5122453;56;1140886;-68
2023/02/11 01:38:10;;;;;;;47.90;17.92;;;;;;;1.94;100.00;101818.66;4989210;56;1141323;-68
2023/02/11 01:43:17;;;;;;;63.20;27.47;;;;;;;1.95;100.00;101796.45;4972245;57;1141016;-68
2023/02/11 01:48:40;;;;;;;48.63;20.10;;;;;;;1.94;100.00;101793.42;5037737;56;1140868;-71
2023/02/11 01:59:16;;;;;;;49.97;20.47;;;;;;;1.96;100.00;101753.81;5111652;56;1140903;-69
2023/02/11 02:04:26;;;;;;;45.30;17.37;;;;;;;1.93;100.00;101721.27;5104765;56;1140968;-70
2023/02/11 02:09:36;;;;;;;45.90;20.17;;;;;;;1.93;100.00;101730.84;5131782;56;1140820;-70
2023/02/11 02:14:43;;;;;;;37.50;18.10;;;;;;;1.92;100.00;101745.64;5111605;56;1140850;-71
2023/02/11 02:20:13;;;;;;;49.47;22.57;;;;;;;1.93;100.00;101760.84;5111628;56;1140843;-68
2023/02/11 02:25:25;;;;;;;46.33;17.05;;;;;;;1.90;100.00;101727.85;5111556;56;1141074;-69
2023/02/11 02:31:14;;;;;;;46.20;21.67;;;;;;;1.96;100.00;101721.65;5110191;56;1141002;-71
2023/02/11 02:36:33;;;;;;;44.53;21.67;;;;;;;1.97;100.00;101711.63;5052805;56;1140979;-68
2023/02/11 02:41:42;;;;;;;46.80;18.43;;;;;;;1.95;100.00;101686.88;5002402;55;1141045;-71
2023/02/11 02:46:48;;;;;;;42.50;17.73;;;;;;;1.97;100.00;101691.62;5061430;56;1141106;-69
2023/02/11 02:52:09;;;;;;;51.77;18.70;;;;;;;1.96;100.00;101679.46;5042226;56;1141174;-68
2023/02/11 02:57:38;;;;;;;39.17;16.67;;;;;;;1.98;100.00;101689.42;5039041;56;1140928;-68
2023/02/11 03:02:52;;;;;;;37.03;15.43;;;;;;;2.01;100.00;101671.06;5037178;56;1140855;-69
2023/02/11 03:08:11;;;;;;;57.20;25.20;;;;;;;2.00;100.00;101671.95;5058892;56;1140912;-70
2023/02/11 03:13:22;;;;;;;47.67;20.83;;;;;;;2.00;100.00;101654.13;5039350;56;1140919;-69
2023/02/11 03:18:31;;;;;;;47.87;19.10;;;;;;;2.00;100.00;101644.55;5040442;56;1141029;-70
2023/02/11 03:23:55;;;;;;;49.57;19.60;;;;;;;1.98;100.00;101625.50;5060649;56;1140826;-70
2023/02/11 03:29:20;;;;;;;;;;;;;;;1.97;100.00;101614.66;5055751;56;1140908;-71
2023/02/11 03:34:59;;;;;;;48.90;25.37;;;;;;;1.96;100.00;101599.89;5130209;56;974144;-67
2023/02/11 03:40:12;;;;;;;38.95;18.77;;;;;;;1.93;100.00;101592.58;5045465;56;1138897;-70
2023/02/11 03:45:19;;;;;;;;;;;;;;;1.92;100.00;101583.04;5119063;56;1140921;-68
2023/02/11 03:50:30;;;;;;;54.23;23.03;;;;;;;1.92;100.00;101588.25;5153606;56;974294;-68
2023/02/11 03:55:38;;;;;;;53.47;24.70;;;;;;;1.93;100.00;101580.39;5112073;56;1138878;-70
2023/02/11 04:00:45;;;;;;;48.50;23.17;;;;;;;1.93;100.00;101571.71;5116638;56;1140858;-69
2023/02/11 04:05:51;;;;;;;56.20;24.67;;;;;;;1.92;100.00;101559.12;5136741;56;1141008;-69
2023/02/11 04:10:58;;;;;;;47.53;20.75;;;;;;;1.91;100.00;101560.45;5035755;56;1144408;-71
2023/02/11 04:16:04;;;;;;;45.40;18.07;;;;;;;1.91;100.00;101556.09;5033603;56;1140801;-70
2023/02/11 04:21:10;;;;;;;60.28;25.30;;;;;;;1.92;100.00;101540.00;5029230;56;1140947;-70
2023/02/11 04:26:16;;;;;;;42.53;18.80;;;;;;;1.93;100.00;101548.23;5048349;56;1141144;-67
2023/02/11 04:31:22;;;;;;;50.27;19.23;;;;;;;1.93;100.00;101519.54;5028573;56;1140950;-70
2023/02/11 04:36:27;;;;;;;54.65;23.77;;;;;;;1.92;100.00;101513.47;5025543;56;1140880;-71
2023/02/11 04:41:33;;;;;;;58.43;26.57;;;;;;;1.93;100.00;101511.27;5057096;57;1140939;-69
2023/02/11 04:46:39;;;;;;;49.80;21.87;;;;;;;1.97;100.00;101512.05;5037233;57;1141176;-70
2023/02/11 04:51:45;;;;;;;58.40;25.07;;;;;;;1.98;100.00;101508.55;5037824;57;1140885;-69
2023/02/11 04:56:52;;;;;;;58.60;26.60;;;;;;;2.00;100.00;101501.51;5061183;57;1141026;-68
2023/02/11 05:01:58;;;;;;;46.10;19.90;;;;;;;1.99;100.00;101508.48;5041856;57;1141040;-68
2023/02/11 05:07:04;;;;;;;61.03;23.47;;;;;;;1.98;100.00;101502.88;5022974;56;1143816;-67
2023/02/11 05:12:11;;;;;;;49.38;22.76;;;;;;;1.99;100.00;101490.66;5024225;56;1140958;-69
2023/02/11 05:17:17;;;;;;;45.77;19.57;;;;;;;2.00;100.00;101486.71;4985531;56;1141030;-71
2023/02/11 05:22:23;;;;;;;69.40;24.83;;;;;;;2.00;100.00;101467.59;5012698;57;1141369;-67
2023/02/11 05:27:29;;;;;;;65.80;21.27;;;;;;;2.00;100.00;101463.23;5023063;57;1141026;-66
2023/02/11 05:32:35;;;;;;;60.90;26.00;;;;;;;1.98;100.00;101446.80;5048199;56;1140886;-68
2023/02/11 05:37:40;;;;;;;59.37;26.97;;;;;;;2.00;100.00;101458.46;5114796;56;1141096;-70
2023/02/11 05:42:46;;;;;;;55.63;22.67;;;;;;;2.00;100.00;101458.02;5119240;55;1141288;-70
2023/02/11 05:47:53;;;;;;;43.80;18.33;;;;;;;2.00;100.00;101455.41;5074013;55;1140945;-68
2023/02/11 05:52:59;;;;;;;44.90;19.23;;;;;;;2.01;100.00;101450.59;5032051;57;1141023;-68
2023/02/11 05:58:06;;;;;;;56.07;26.30;;;;;;;2.03;100.00;101455.78;5031685;57;1140944;-71
2023/02/11 06:03:13;;;;;;;65.50;29.47;;;;;;;2.04;100.00;101453.58;5089283;56;1140990;-70
2023/02/11 06:08:19;;;;;;;60.50;25.70;;;;;;;2.06;100.00;101435.68;5136284;56;1141105;-66
2023/02/11 06:13:25;;;;;;;57.40;26.03;;;;;;;2.05;100.00;101440.94;5089978;56;1141171;-67
2023/02/11 06:18:32;;;;;;;66.00;26.33;;;;;;;2.03;100.00;101436.20;5031507;57;1140939;-66
2023/02/11 06:23:38;;;;;;;67.33;28.67;;;;;;;2.03;100.00;101426.63;5051229;57;1140923;-65
2023/02/11 06:28:44;;;;;;;53.08;22.98;;;;;;;1.98;100.00;101429.83;5079320;56;1141070;-68
2023/02/11 06:33:50;;;;;;;55.73;25.10;;;;;;;1.99;100.00;101421.53;5106908;56;1141077;-66
2023/02/11 06:38:57;;;;;;;67.03;31.48;;;;;;;2.01;100.00;101423.20;5038485;56;1140954;-68
2023/02/11 06:44:03;;;;;;;66.00;30.68;;;;;;;2.03;100.00;101432.30;5031017;56;1140976;-68
2023/02/11 06:49:09;;;;;;;59.93;24.57;;;;;;;2.02;100.00;101422.31;5031623;56;1141044;-69
2023/02/11 06:54:15;;;;;;;67.72;25.68;;;;;;;2.00;100.00;101421.48;5044276;56;1141349;-68
2023/02/11 06:59:21;;;;;;;62.10;26.60;;;;;;;2.00;100.00;101422.80;5131944;55;1141183;-67
2023/02/11 07:04:27;;;;;;;67.87;29.57;;;;;;;1.97;100.00;101419.44;5151933;55;1140937;-69
2023/02/11 07:09:33;;;;;;;60.60;25.60;;;;;;;1.95;100.00;101426.00;5106091;56;1140889;-66
2023/02/11 07:14:39;;;;;;;61.77;30.60;;;;;;;1.96;100.00;101413.81;5112279;56;1140976;-68
2023/02/11 07:19:45;;;;;;;63.80;25.03;;;;;;;1.97;100.00;101425.52;5096340;55;1140921;-65
2023/02/11 07:24:50;;;;;;;66.83;25.40;;;;;;;1.98;100.00;101400.28;5096308;56;1141152;-67
2023/02/11 07:29:56;;;;;;;61.93;25.33;;;;;;;1.99;100.00;101403.27;5115297;56;1216348;-65
2023/02/11 07:35:02;;;;;;;73.37;30.57;;;;;;;2.02;100.00;101404.05;5096540;56;1141028;-67
2023/02/11 07:40:09;;;;;;;68.57;32.85;;;;;;;2.06;100.00;101420.02;5121456;55;1141248;-68
2023/02/11 07:45:16;;;;;;;53.50;25.64;;;;;;;2.12;100.00;101405.97;5131435;55;1142727;-67
2023/02/11 07:50:22;;;;;;;69.90;30.17;;;;;;;2.15;100.00;101394.11;5151334;56;1140887;-66
2023/02/11 07:55:28;;;;;;;66.93;29.63;;;;;;;2.17;100.00;101387.09;5131018;55;1140965;-69
2023/02/11 08:00:34;;;;;;;67.10;32.53;;;;;;;2.18;100.00;101405.77;5103307;56;1140972;-68
2023/02/11 08:05:41;;;;;;;72.00;32.30;;;;;;;2.20;100.00;101411.80;5150869;56;1140995;-69
2023/02/11 08:10:46;;;;;;;69.77;31.67;;;;;;;2.24;100.00;101397.77;5130716;56;1141051;-68
2023/02/11 08:15:53;;;;;;;71.67;33.47;;;;;;;2.27;100.00;101391.16;5122729;54;1140954;-66
2023/02/11 08:21:07;;;;;;;65.50;29.63;;;;;;;2.32;100.00;101401.00;5143467;56;1140976;-67
2023/02/11 08:26:18;;;;;;;66.67;31.62;;;;;;;2.36;100.00;101403.08;5111756;55;1140857;-70
2023/02/11 08:31:28;;;;;;;67.47;32.17;;;;;;;2.43;100.00;101405.92;5100852;55;1140980;-67
2023/02/11 08:36:37;;;;;;;77.58;33.63;;;;;;;2.47;100.00;101410.98;5077839;55;1141065;-68
2023/02/11 08:41:42;;;;;;;58.77;25.80;;;;;;;2.52;100.00;101391.27;5115749;56;1140913;-71
2023/02/11 08:46:49;;;;;;;68.03;28.57;;;;;;;2.58;100.00;101406.77;5130706;55;1141239;-70
2023/02/11 08:51:58;;;;;;;71.60;32.30;;;;;;;2.64;100.00;101423.98;5149769;55;1140880;-68
2023/02/11 08:57:10;;;;;;;74.30;33.10;;;;;;;2.69;100.00;101390.76;5149689;54;1140950;-75
2023/02/11 09:02:25;;;;;;;73.83;35.53;;;;;;;2.73;100.00;101394.99;5094961;56;1140888;-72
2023/02/11 09:07:34;;;;;;;62.50;31.30;;;;;;;2.81;100.00;101392.98;5144634;55;1141040;-70
2023/02/11 09:12:46;;;;;;;76.27;32.13;;;;;;;2.86;100.00;101384.55;5126223;55;1141073;-70
2023/02/11 09:17:51;;;;;;;61.87;28.20;;;;;;;2.90;100.00;101362.66;5130878;56;1140918;-68
2023/02/11 09:22:59;;;;;;;67.97;31.27;;;;;;;2.96;100.00;101365.05;5150895;56;1140886;-67
2023/02/11 09:28:05;;;;;;;71.77;36.48;;;;;;;3.00;100.00;101363.20;5130934;56;1140925;-71
2023/02/11 09:33:10;;;;;;;73.40;28.90;;;;;;;3.11;100.00;101370.23;5130666;56;1140840;-68
2023/02/11 09:38:16;;;;;;;57.30;26.40;;;;;;;3.22;100.00;101358.95;5131019;56;1141031;-68
2023/02/11 09:43:27;;;;;;;63.60;27.03;;;;;;;3.31;100.00;101348.66;5134903;56;1141075;-70
2023/02/11 09:48:37;;;;;;;64.40;23.73;;;;;;;3.41;100.00;101371.80;5040628;56;1141161;-70
2023/02/11 09:53:44;;;;;;;74.83;34.07;;;;;;;3.49;100.00;101372.41;5041549;56;1141100;-65
2023/02/11 09:58:49;;;;;;;61.67;26.00;;;;;;;3.57;100.00;101372.13;5100999;56;1140954;-69
2023/02/11 10:04:34;;;;;;;79.00;36.47;;;;;;;3.65;100.00;101363.58;5130232;55;1140979;-67
2023/02/11 10:10:13;;;;;;;55.25;24.43;;;;;;;3.70;100.00;101338.08;5130107;56;1140804;-70
2023/02/11 10:15:42;;;;;;;68.30;30.55;;;;;;;3.80;100.00;101329.47;5130437;55;1140902;-68
2023/02/11 10:21:12;;;;;;;57.78;26.45;;;;;;;3.87;100.00;101319.16;5130689;54;1141024;-71
2023/02/11 10:26:20;;;;;;;61.37;25.10;;;;;;;3.93;100.00;101312.39;5130590;55;1141018;-67
2023/02/11 10:31:31;;;;;;;48.27;21.83;;;;;;;4.00;100.00;101288.98;5123072;56;1141245;-66
2023/02/11 10:36:40;;;;;;;42.97;20.90;;;;;;;4.08;100.00;101276.48;5124752;55;1141296;-69
2023/02/11 10:41:54;;;;;;;43.17;22.10;;;;;;;4.17;100.00;101256.93;5129983;55;1140991;-67
2023/02/11 10:47:04;;;;;;;43.27;16.43;;;;;;;4.23;100.00;101229.21;5149212;56;1140923;-66
2023/02/11 10:52:22;;;;;;;54.53;22.17;;;;;;;4.28;100.00;101201.55;5130314;56;1140844;-68
2023/02/11 10:57:43;;;;;;;61.73;27.57;;;;;;;4.36;100.00;101202.06;5142546;55;1141143;-68
2023/02/11 11:03:00;;;;;;;46.53;22.43;;;;;;;4.45;100.00;101211.70;5129598;56;1140842;-70
2023/02/11 11:08:09;;;;;;;59.63;23.85;;;;;;;4.48;100.00;101208.10;5150891;56;1141216;-70
2023/02/11 11:13:28;;;;;;;59.23;25.20;;;;;;;4.52;100.00;101201.83;5130378;55;1140919;-69
2023/02/11 11:18:34;;;;;;;47.17;23.37;;;;;;;4.54;100.00;101202.17;5130890;56;1141000;-69
2023/02/11 11:23:44;;;;;;;47.67;21.13;;;;;;;4.56;100.00;101234.85;5151186;56;1140908;-71
2023/02/11 11:28:59;;;;;;;52.33;24.97;;;;;;;4.57;100.00;101240.48;5131095;56;1141057;-71
2023/02/11 11:34:07;;;;;;;;;;;;;;;4.60;100.00;101253.43;5128657;55;1140825;-70
2023/02/11 11:39:33;;;;;;;47.30;25.10;;;;;;;4.63;100.00;101276.89;5144686;56;974054;-70
2023/02/11 11:44:39;;;;;;;45.45;18.60;;;;;;;4.66;100.00;101283.32;5146025;56;1138942;-67
2023/02/11 11:50:09;;;;;;;55.17;26.80;;;;;;;4.70;100.00;101269.19;5094076;56;1141177;-69
2023/02/11 11:55:31;;;;;;;47.08;24.95;;;;;;;4.73;100.00;101273.00;5094782;56;1140922;-70
2023/02/11 12:01:05;;;;;;;48.80;24.80;;;;;;;4.74;100.00;101268.58;5093540;56;1140743;-70
2023/02/11 12:06:21;;;;;;;;;;;;;;;4.75;100.00;101282.93;5103291;56;1141063;-69
2023/02/11 12:11:56;;;;;;;49.77;24.27;;;;;;;4.76;100.00;101278.55;5123801;55;974127;-67
2023/02/11 12:17:27;;;;;;;42.45;22.70;;;;;;;4.78;100.00;101281.95;5083668;55;1138730;-69
2023/02/11 12:22:55;;;;;;;44.03;23.07;;;;;;;4.81;100.00;101287.93;4981552;57;1141641;-67
2023/02/11 12:28:35;;;;;;;47.50;23.05;;;;;;;4.83;100.00;101293.97;5018791;57;1141054;-70
2023/02/11 12:34:26;;;;;;;38.97;17.57;;;;;;;4.79;100.00;101275.80;5001566;57;1140943;-67
2023/02/11 12:39:53;;;;;;;35.23;16.73;;;;;;;4.88;100.00;101282.84;5002939;57;1141186;-69
2023/02/11 12:45:13;;;;;;;38.67;19.63;;;;;;;4.91;100.00;101269.58;5022846;57;1141095;-68
2023/02/11 12:50:38;;;;;;;42.40;20.90;;;;;;;4.94;100.00;101266.84;5033500;57;1141252;-67
2023/02/11 12:55:47;;;;;;;42.67;17.53;;;;;;;4.97;100.00;101268.48;5045734;57;1141135;-67
2023/02/11 13:01:12;;;;;;;38.17;20.50;;;;;;;5.02;100.00;101277.02;5065527;57;1140895;-67
2023/02/11 13:06:27;;;;;;;47.37;24.60;;;;;;;5.06;100.00;101272.47;5061518;56;1141055;-68
2023/02/11 13:11:43;;;;;;;29.40;17.23;;;;;;;5.06;100.00;101279.88;5113807;56;1141034;-68
2023/02/11 13:16:51;;;;;;;33.67;15.80;;;;;;;5.09;100.00;101284.14;5150625;56;1140994;-66
2023/02/11 13:22:13;;;;;;;30.27;16.63;;;;;;;5.14;100.00;101293.98;5128877;56;1141045;-65
2023/02/11 13:28:02;;;;;;;25.90;14.30;;;;;;;5.16;100.00;101291.70;5130880;56;1141009;-68
2023/02/11 13:33:20;;;;;;;20.57;12.03;;;;;;;5.19;100.00;101292.03;5131003;56;1140926;-70
2023/02/11 13:38:29;;;;;;;30.05;15.00;;;;;;;5.20;100.00;101291.08;5130946;56;1140949;-69
2023/02/11 13:43:37;;;;;;;25.93;14.40;;;;;;;5.23;100.00;101288.33;5149616;55;1140936;-69
2023/02/11 13:48:53;;;;;;;28.73;13.57;;;;;;;5.24;100.00;101275.62;5103676;55;1141045;-68
2023/02/11 13:53:59;;;;;;;27.33;14.37;;;;;;;5.23;100.00;101281.78;5093286;55;1140808;-67
2023/02/11 13:59:29;;;;;;;29.40;17.17;;;;;;;5.27;100.00;101289.91;5113313;55;1140885;-67
2023/02/11 14:09:58;;;;;;;37.67;17.50;;;;;;;5.36;100.00;101311.80;5020357;56;1140945;-67
2023/02/11 14:15:21;;;;;;;23.50;13.53;;;;;;;5.40;100.00;101318.63;5046526;57;1140812;-69
2023/02/11 14:20:38;;;;;;;28.10;13.83;;;;;;;5.45;100.00;101323.68;4997197;56;1140894;-67
2023/02/11 14:25:48;;;;;;;24.77;13.83;;;;;;;5.50;100.00;101341.39;5027489;57;1140872;-69
2023/02/11 14:31:04;;;;;;;25.23;14.73;;;;;;;5.52;100.00;101342.16;5051762;57;1141001;-66
2023/02/11 14:36:35;;;;;;;32.40;15.28;;;;;;;5.55;100.00;101340.25;5060160;56;1143149;-68
2023/02/11 14:41:45;;;;;;;29.40;16.73;;;;;;;5.60;100.00;101350.10;4999800;55;1143471;-68
2023/02/11 14:46:54;;;;;;;26.00;14.60;;;;;;;5.62;100.00;101362.70;5020165;56;1143186;-69
2023/02/11 14:52:07;;;;;;;24.07;13.53;;;;;;;5.64;100.00;101380.55;5047076;56;1143006;-68
2023/02/11 14:57:18;;;;;;;28.20;14.35;;;;;;;5.65;100.00;101380.91;5046913;55;1143035;-69
2023/02/11 15:02:26;;;;;;;;;;;;;;;5.68;100.00;101386.95;5039388;56;1143147;-70
2023/02/11 15:07:31;;;;;;;27.87;14.07;;;;;;;5.69;100.00;101388.20;5092720;56;976306;-69
2023/02/11 15:12:39;;;;;;;23.23;12.53;;;;;;;5.71;100.00;101389.45;5038881;56;1141137;-69
2023/02/11 15:17:45;;;;;;;24.02;12.47;;;;;;;5.73;100.00;101398.11;5027842;57;1143063;-69
2023/02/11 15:23:01;;;;;;;23.73;12.47;;;;;;;5.78;100.00;101411.90;5048396;55;1142986;-69
2023/02/11 15:28:12;;;;;;;18.87;10.50;;;;;;;5.81;100.00;101419.61;5064692;56;1143143;-68
2023/02/11 15:33:24;;;;;;;21.62;11.68;;;;;;;5.82;100.00;101427.42;5032438;56;1143194;-67
2023/02/11 15:38:30;;;;;;;20.97;9.55;;;;;;;5.87;100.00;101428.55;5028640;56;1143108;-67
2023/02/11 15:43:50;;;;;;;22.83;11.27;;;;;;;5.87;100.00;101428.55;5047168;56;1141151;-70
2023/02/11 15:48:56;;;;;;;22.10;11.37;;;;;;;5.88;100.00;101439.45;5027147;57;1143164;-67
2023/02/11 15:54:05;;;;;;;26.80;11.68;;;;;;;5.88;100.00;101440.75;5033076;55;1143469;-69
2023/02/11 15:59:20;;;;;;;21.50;10.98;;;;;;;5.87;100.00;101460.91;5036506;56;1143069;-67
2023/02/11 16:04:29;;;;;;;19.63;11.40;;;;;;;5.88;100.00;101465.70;5040309;56;1143550;-70
2023/02/11 16:09:38;;;;;;;19.37;10.43;;;;;;;5.88;100.00;101479.71;5037229;56;1143200;-69
2023/02/11 16:14:44;;;;;;;19.90;12.47;;;;;;;5.88;100.00;101482.77;5037428;56;1142871;-69
2023/02/11 16:19:52;;;;;;;19.40;10.47;;;;;;;5.88;100.00;101497.20;5055810;56;1143241;-67
2023/02/11 16:25:00;;;;;;;23.07;10.90;;;;;;;5.89;100.00;101497.17;5036964;56;1143215;-68
2023/02/11 16:30:07;;;;;;;20.90;11.23;;;;;;;5.90;100.00;101507.22;4992936;55;1143140;-69
2023/02/11 16:35:36;;;;;;;21.87;10.47;;;;;;;5.91;100.00;101522.05;5047719;57;1143247;-70
2023/02/11 16:41:19;;;;;;;30.72;16.50;;;;;;;5.91;100.00;101518.11;4967832;55;1143103;-69
2023/02/11 16:46:26;;;;;;;39.83;17.87;;;;;;;5.91;100.00;101524.22;4983837;55;1142891;-69
2023/02/11 16:51:32;;;;;;;25.07;10.97;;;;;;;5.88;100.00;101533.53;4964431;55;1143114;-69
2023/02/11 16:56:41;;;;;;;17.62;7.62;;;;;;;5.89;100.00;101537.87;5009382;56;1143021;-68
2023/02/11 17:01:54;;;;;;;20.80;8.83;;;;;;;5.88;100.00;101550.59;5041154;58;1138996;-69
2023/02/11 17:07:22;;;;;;;23.37;9.97;;;;;;;5.86;100.00;101563.35;4928679;56;1141283;-69
2023/02/11 17:12:33;;;;;;;31.40;11.70;;;;;;;5.87;100.00;101578.19;4979014;57;1140963;-70
2023/02/11 17:17:46;;;;;;;25.25;11.25;;;;;;;5.88;100.00;101590.41;5028783;56;1143316;-71
2023/02/11 17:22:53;;;;;;;20.00;10.05;;;;;;;5.91;100.00;101604.30;5036234;56;1143145;-66
2023/02/11 17:27:58;;;;;;;61.73;28.27;;;;;;;5.91;100.00;101613.95;5049254;56;1142830;-68
2023/02/11 17:33:04;;;;;;;19.20;9.40;;;;;;;5.93;100.00;101616.91;4967430;57;1143101;-71
2023/02/11 17:38:10;;;;;;;19.70;7.40;;;;;;;5.93;100.00;101627.41;4960185;56;1140872;-72
2023/02/11 17:43:16;;;;;;;19.02;7.92;;;;;;;5.93;100.00;101626.09;4902589;56;1142767;-71
2023/02/11 17:48:21;;;;;;;27.22;10.50;;;;;;;5.95;100.00;101643.11;5018871;57;1240458;-69
2023/02/11 17:53:27;;;;;;;20.55;8.68;;;;;;;5.94;100.00;101638.77;4968850;56;1162436;-70
2023/02/11 17:58:33;;;;;;;24.60;9.77;;;;;;;5.94;100.00;101649.27;4968001;56;1239055;-69
2023/02/11 18:03:39;;;;;;;22.43;8.40;;;;;;;5.93;100.00;101652.81;4973643;57;1141014;-70
2023/02/11 18:08:46;;;;;;;15.40;7.17;;;;;;;5.93;100.00;101657.61;4965350;58;1141927;-69
2023/02/11 18:14:20;;;;;;;20.17;9.00;;;;;;;5.91;100.00;101656.81;4964235;57;1141690;-72
2023/02/11 18:19:53;;;;;;;27.47;13.90;;;;;;;5.89;100.00;101655.16;4970407;58;1141205;-68
2023/02/11 18:24:59;;;;;;;25.13;13.13;;;;;;;5.93;100.00;101675.13;4982150;57;1143038;-68
2023/02/11 18:30:06;;;;;;;32.00;14.20;;;;;;;5.93;100.00;101679.92;4978080;57;1238264;-69
2023/02/11 18:35:14;;;;;;;27.40;11.63;;;;;;;5.94;100.00;101679.47;4979404;56;1253641;-71
2023/02/11 18:40:20;;;;;;;37.95;15.28;;;;;;;5.95;100.00;101693.85;4893732;56;1245826;-68
2023/02/11 18:45:32;;;;;;;25.43;10.13;;;;;;;5.90;100.00;101701.05;4927245;56;1253892;-70
2023/02/11 18:50:34;;;;;;;23.67;9.80;;;;;;;5.90;100.00;101701.05;4870915;56;1143901;-69
2023/02/11 18:55:45;;;;;;;24.07;9.83;;;;;;;5.93;100.00;101711.44;4984702;57;1141114;-68
2023/02/11 19:00:51;;;;;;;19.57;8.27;;;;;;;5.92;100.00;101724.62;5049536;57;1140866;-69
2023/02/11 19:05:56;;;;;;;22.27;8.67;;;;;;;5.90;100.00;101739.11;4947030;57;1141009;-68
2023/02/11 19:11:04;;;;;;;21.93;8.27;;;;;;;5.87;100.00;101737.88;4936443;57;1140909;-68
2023/02/11 19:16:13;;;;;;;25.43;7.77;;;;;;;5.87;100.00;101752.32;4952861;57;1140963;-69
2023/02/11 19:21:19;;;;;;;24.43;9.13;;;;;;;5.87;100.00;101760.66;4926150;57;1250311;-70
2023/02/11 19:26:26;;;;;;;34.18;14.28;;;;;;;5.87;100.00;101758.03;4933107;57;1197894;-68
2023/02/11 19:31:33;;;;;;;29.65;10.28;;;;;;;5.85;100.00;101770.36;4952472;57;1156191;-67
2023/02/11 19:36:39;;;;;;;35.03;13.40;;;;;;;5.83;100.00;101773.03;4923226;57;1142934;-65
2023/02/11 19:41:45;;;;;;;39.20;12.37;;;;;;;5.83;100.00;101778.73;4934026;57;1142961;-68
2023/02/11 19:46:52;;;;;;;29.93;12.30;;;;;;;5.81;100.00;101788.44;4944946;57;1182776;-68
2023/02/11 19:51:58;;;;;;;26.10;11.00;;;;;;;5.81;100.00;101798.48;4933909;57;1143033;-68
2023/02/11 19:57:04;;;;;;;35.43;14.00;;;;;;;5.81;100.00;101805.05;4933977;57;1143216;-66
2023/02/11 20:02:12;;;;;;;25.90;9.87;;;;;;;5.82;100.00;101821.20;4928576;57;1143034;-69
2023/02/11 20:07:18;;;;;;;27.83;9.43;;;;;;;5.83;100.00;101830.79;4975474;56;1141125;-69
2023/02/11 20:12:24;;;;;;;30.08;10.30;;;;;;;5.85;100.00;101835.53;5010104;56;1140959;-70
2023/02/11 20:17:30;;;;;;;23.45;8.70;;;;;;;5.86;100.00;101833.31;5039675;56;1142910;-68
2023/02/11 20:22:36;;;;;;;28.70;8.73;;;;;;;5.86;100.00;101842.50;5040919;56;1140867;-68
2023/02/11 20:27:41;;;;;;;25.45;8.45;;;;;;;5.87;100.00;101859.97;5039245;56;1140828;-67
2023/02/11 20:32:47;;;;;;;30.13;9.10;;;;;;;5.87;100.00;101857.80;5058097;56;1141373;-69
2023/02/11 20:37:53;;;;;;;25.00;8.27;;;;;;;5.86;100.00;101876.63;5041015;56;1141179;-69
2023/02/11 20:43:00;;;;;;;28.03;8.50;;;;;;;5.84;100.00;101886.78;5040894;57;1141154;-67
2023/02/11 20:48:06;;;;;;;30.20;9.23;;;;;;;5.82;100.00;101889.46;5060744;57;1140861;-72
2023/02/11 20:53:13;;;;;;;26.87;8.87;;;;;;;5.79;100.00;101895.30;4945813;56;1140973;-69
2023/02/11 20:58:19;;;;;;;25.43;10.03;;;;;;;5.71;100.00;101886.37;5034356;56;1140952;-68
2023/02/11 21:03:25;;;;;;;41.83;11.33;;;;;;;5.67;100.00;101900.50;4896510;56;1143121;-69
2023/02/11 21:08:31;;;;;;;41.63;12.53;;;;;;;5.63;100.00;101923.86;4946780;57;1143101;-68
2023/02/11 21:13:37;;;;;;;46.95;14.25;;;;;;;5.61;100.00;101936.17;4896486;58;1142889;-67
2023/02/11 21:18:44;;;;;;;38.47;9.77;;;;;;;5.65;100.00;101950.42;4896922;58;1143175;-69
2023/02/11 21:23:50;;;;;;;37.37;10.93;;;;;;;5.71;100.00;101967.74;4915736;58;1141008;-70
2023/02/11 21:28:56;;;;;;;45.73;15.17;;;;;;;5.73;100.00;101975.56;4912480;57;1143107;-68
2023/02/11 21:34:02;;;;;;;31.80;10.93;;;;;;;5.76;100.00;101996.47;4976591;57;1143102;-71
2023/02/11 21:39:07;;;;;;;32.47;12.27;;;;;;;5.75;100.00;102000.86;4995937;57;1143058;-69
2023/02/11 21:44:13;;;;;;;22.93;10.27;;;;;;;5.74;100.00;102008.78;5006423;57;1217363;-67
2023/02/11 21:49:20;;;;;;;44.83;13.80;;;;;;;5.70;100.00;102006.70;5007896;56;1143141;-67
2023/02/11 21:54:30;;;;;;;38.43;13.57;;;;;;;5.69;100.00;102024.68;5008008;56;1143317;-67
2023/02/11 21:59:33;;;;;;;30.12;9.25;;;;;;;5.74;100.00;102029.78;5011002;57;1143182;-66
2023/02/11 22:04:39;;;;;;;36.60;11.23;;;;;;;5.75;100.00;102031.50;4995354;57;1140978;-70
2023/02/11 22:09:45;;;;;;;29.80;10.33;;;;;;;5.75;100.00;102044.63;4899380;57;1143130;-68
2023/02/11 22:14:50;;;;;;;39.83;14.70;;;;;;;5.83;100.00;102048.70;4911075;58;1142982;-70
2023/02/11 22:19:56;;;;;;;40.40;12.73;;;;;;;5.92;100.00;102058.09;4890918;58;1143034;-69
2023/02/11 22:25:02;;;;;;;33.20;11.93;;;;;;;5.98;100.00;102062.66;4927663;58;1143079;-70
2023/02/11 22:30:10;;;;;;;45.97;13.80;;;;;;;5.97;100.00;102050.44;4967543;57;1143043;-69
2023/02/11 22:35:16;;;;;;;169.23;55.40;;;;;;;5.91;100.00;102074.75;4933373;57;1143204;-69
2023/02/11 22:40:22;;;;;;;112.95;37.13;;;;;;;5.92;100.00;102092.23;4951451;57;1150594;-68
2023/02/11 22:45:28;;;;;;;58.63;22.50;;;;;;;5.95;100.00;102089.05;4969905;57;1145193;-70
2023/02/11 22:50:35;;;;;;;41.13;14.00;;;;;;;5.96;100.00;102095.13;4966595;57;1143012;-70
2023/02/11 22:55:41;;;;;;;40.80;11.83;;;;;;;6.00;100.00;102103.32;4970759;57;1143069;-68
2023/02/11 23:00:47;;;;;;;27.97;8.67;;;;;;;5.96;100.00;102108.26;5004761;57;1141014;-71
2023/02/11 23:05:53;;;;;;;36.77;11.57;;;;;;;5.82;100.00;102106.51;4927022;57;1140857;-69
2023/02/11 23:11:06;;;;;;;36.23;10.97;;;;;;;5.77;100.00;102119.81;5060445;56;1142953;-68
2023/02/11 23:16:19;;;;;;;55.17;12.33;;;;;;;5.74;100.00;102113.79;5045084;56;1142981;-67